Time;durP1;ratioP1;P1;durP2;ratioP2;P2;SDS_P1;SDS_P2;PMS_P1;PMS_P2;Temp;Humidity;BMP_temperature;BMP_pressure;BME280_temperature;BME280_humidity;BME280_pressure;Samples;Min_cycle;Max_cycle;Signal;HPM_P1;HPM_P2
2022/11/11 00:00:59;;;;;;;19.30;3.80;;;;;;;7.94;66.13;102189.41;4968346;28;20050;-68
2022/11/11 00:03:26;;;;;;;18.23;3.60;;;;;;;7.70;66.39;102191.91;4953451;28;20411;-68
2022/11/11 00:05:53;;;;;;;18.67;3.00;;;;;;;7.70;66.54;102186.56;4953161;28;20051;-68
2022/11/11 00:08:20;;;;;;;18.70;4.10;;;;;;;7.59;66.63;102179.31;4953791;28;20055;-69
2022/11/11 00:10:46;;;;;;;16.42;3.50;;;;;;;7.66;67.05;102177.91;4953433;28;20066;-69
2022/11/11 00:13:13;;;;;;;18.15;3.70;;;;;;;7.71;66.53;102174.97;4953391;28;20047;-70
2022/11/11 00:15:39;;;;;;;16.52;3.92;;;;;;;7.50;67.03;102179.06;4954202;28;20078;-68
2022/11/11 00:26:27;;;;;;;24.02;3.97;;;;;;;7.49;67.24;102193.41;4953535;28;20055;-68
2022/11/11 00:29:09;;;;;;;19.63;4.72;;;;;;;7.56;67.13;102200.88;4952969;28;20516;-67
2022/11/11 00:32:21;;;;;;;17.10;3.95;;;;;;;7.70;66.66;102212.44;4953227;28;20048;-70
2022/11/11 00:34:22;;;;;;;14.00;3.13;;;;;;;7.49;67.00;102214.75;4952890;28;20050;-67
2022/11/11 00:36:49;;;;;;;19.00;3.78;;;;;;;7.55;66.90;102209.84;4952553;28;20059;-69
2022/11/11 00:39:15;;;;;;;23.45;4.47;;;;;;;7.47;66.97;102212.22;4952975;28;20138;-70
2022/11/11 00:41:42;;;;;;;18.20;4.00;;;;;;;7.48;66.89;102203.22;4953305;28;20075;-68
2022/11/11 00:44:08;;;;;;;11.95;3.20;;;;;;;7.50;67.01;102212.00;4953522;28;20051;-70
2022/11/11 00:52:05;;;;;;;25.55;4.40;;;;;;;7.29;67.77;102218.75;4972178;28;20058;-69
2022/11/11 00:54:31;;;;;;;13.00;3.90;;;;;;;7.38;67.54;102215.47;4972228;28;20046;-69
2022/11/11 00:56:58;;;;;;;21.23;4.10;;;;;;;7.42;66.85;102200.97;4972118;28;20042;-68
2022/11/11 00:59:24;;;;;;;17.80;4.00;;;;;;;7.42;67.31;102196.47;4972120;28;20137;-68
2022/11/11 01:01:51;;;;;;;17.50;3.88;;;;;;;7.36;67.65;102201.38;4971997;28;20047;-68
2022/11/11 01:04:18;;;;;;;18.77;4.45;;;;;;;7.39;67.48;102203.84;4971943;28;20050;-69
2022/11/11 01:06:44;;;;;;;14.30;3.30;;;;;;;7.35;67.28;102197.00;4971841;28;20075;-69
2022/11/11 01:09:11;;;;;;;10.63;3.10;;;;;;;7.35;67.12;102188.97;4972662;28;20475;-69
2022/11/11 01:11:37;;;;;;;18.38;4.32;;;;;;;7.10;68.10;102187.97;4971888;28;20430;-70
2022/11/11 01:14:04;;;;;;;15.48;3.88;;;;;;;7.14;68.35;102172.59;4971926;28;20055;-67
2022/11/11 01:16:30;;;;;;;30.00;5.05;;;;;;;7.07;68.39;102171.28;4971744;28;20105;-68
2022/11/11 01:18:57;;;;;;;17.23;3.38;;;;;;;7.10;68.50;102171.94;4960097;28;20049;-68
2022/11/11 01:21:24;;;;;;;22.05;4.18;;;;;;;7.13;67.99;102171.75;4952374;28;20061;-69
2022/11/11 01:23:52;;;;;;;16.42;3.88;;;;;;;7.18;67.95;102169.59;4952457;28;20047;-69
2022/11/11 01:26:28;;;;;;;17.02;3.28;;;;;;;7.35;67.31;102171.16;4953005;28;20113;-69
2022/11/11 01:28:57;;;;;;;18.20;4.22;;;;;;;7.26;67.46;102170.94;4952463;28;20495;-68
2022/11/11 01:31:25;;;;;;;11.60;3.60;;;;;;;6.97;68.16;102165.72;4952008;28;20055;-68
2022/11/11 01:33:52;;;;;;;16.85;4.63;;;;;;;6.95;68.68;102165.81;4950899;28;20051;-68
2022/11/11 01:36:26;;;;;;;16.23;4.25;;;;;;;7.10;68.27;102158.59;4952911;28;20055;-69
2022/11/11 01:38:57;;;;;;;13.13;3.85;;;;;;;7.03;68.37;102165.31;4952703;28;20051;-70
2022/11/11 01:41:33;;;;;;;15.13;4.00;;;;;;;6.94;68.49;102166.78;4951391;28;20072;-68
2022/11/11 01:44:41;;;;;;;20.27;4.65;;;;;;;7.18;67.92;102179.44;4952527;28;20122;-67
2022/11/11 01:47:07;;;;;;;15.20;3.65;;;;;;;7.06;67.90;102190.94;4950897;28;20422;-68
2022/11/11 01:49:49;;;;;;;18.60;4.10;;;;;;;7.06;68.27;102191.78;4952147;28;20146;-70
2022/11/11 01:52:26;;;;;;;17.55;4.18;;;;;;;6.80;68.78;102184.63;4952048;28;20051;-70
2022/11/11 01:54:57;;;;;;;12.88;3.58;;;;;;;7.03;68.17;102178.66;4953985;28;20051;-69
2022/11/11 01:57:31;;;;;;;13.93;4.40;;;;;;;6.91;68.49;102177.66;4952431;28;20142;-70
2022/11/11 02:00:03;;;;;;;17.00;4.07;;;;;;;7.06;68.14;102181.13;4953154;28;20043;-69
2022/11/11 02:02:52;;;;;;;18.75;3.90;;;;;;;6.98;68.29;102188.78;4956355;28;20054;-70
2022/11/11 02:09:07;;;;;;;22.63;4.40;;;;;;;6.98;68.12;102199.47;4955270;28;20522;-69
2022/11/11 02:14:38;;;;;;;16.63;4.30;;;;;;;6.87;68.57;102205.47;4954580;28;20082;-69
2022/11/11 02:17:08;;;;;;;17.05;4.85;;;;;;;7.01;68.23;102209.06;4954939;28;20057;-67
2022/11/11 02:19:52;;;;;;;20.05;4.80;;;;;;;7.04;67.96;102209.69;4954608;28;20051;-69
2022/11/11 02:22:33;;;;;;;18.73;4.63;;;;;;;7.12;67.67;102210.06;4955803;28;20106;-69
2022/11/11 02:25:02;;;;;;;8.05;2.97;;;;;;;7.18;67.54;102212.31;4955132;28;20094;-67
2022/11/11 02:27:30;;;;;;;15.18;3.92;;;;;;;7.16;67.48;102219.59;4953716;28;20055;-69
2022/11/11 02:29:59;;;;;;;22.10;4.53;;;;;;;6.95;68.32;102227.19;4962806;28;20101;-68
2022/11/11 02:32:25;;;;;;;20.73;4.25;;;;;;;7.12;67.96;102225.25;4968148;28;20558;-69
2022/11/11 02:34:52;;;;;;;22.63;4.43;;;;;;;6.94;68.31;102225.47;4955301;28;20055;-67
2022/11/11 02:37:22;;;;;;;15.07;4.43;;;;;;;6.81;68.71;102234.38;4955525;28;20059;-70
2022/11/11 02:39:51;;;;;;;15.90;4.57;;;;;;;6.95;68.37;102221.84;4956316;28;20050;-70
2022/11/11 02:42:35;;;;;;;15.27;4.20;;;;;;;7.26;67.20;102216.31;4954773;28;20054;-68
2022/11/11 02:45:01;;;;;;;16.48;4.57;;;;;;;6.83;68.47;102217.28;4955067;28;20078;-67
2022/11/11 02:47:28;;;;;;;21.90;4.05;;;;;;;6.96;68.13;102222.69;4954986;28;20052;-69
2022/11/11 02:49:54;;;;;;;17.02;4.00;;;;;;;6.95;68.24;102215.66;4954809;28;20047;-68
2022/11/11 02:52:21;;;;;;;18.92;4.82;;;;;;;6.95;68.05;102210.31;4955229;28;20102;-70
2022/11/11 02:54:48;;;;;;;20.15;4.93;;;;;;;6.86;68.67;102208.25;4957099;28;20043;-69
2022/11/11 02:57:15;;;;;;;15.65;4.35;;;;;;;6.85;68.48;102211.88;4974743;28;20473;-69
2022/11/11 02:59:41;;;;;;;12.10;3.97;;;;;;;6.94;68.61;102216.59;4974425;28;20660;-70
2022/11/11 03:02:08;;;;;;;18.88;4.15;;;;;;;6.81;68.49;102213.03;4973841;28;20034;-68
2022/11/11 03:04:36;;;;;;;16.55;4.22;;;;;;;6.81;68.95;102218.38;4974423;28;20043;-69
2022/11/11 03:07:03;;;;;;;15.82;3.42;;;;;;;6.86;69.04;102213.59;4965370;28;20109;-69
2022/11/11 03:09:30;;;;;;;13.40;4.43;;;;;;;6.85;68.76;102219.88;4954381;28;20107;-69
2022/11/11 03:11:57;;;;;;;16.73;3.70;;;;;;;6.88;68.81;102209.88;4953507;28;20411;-67
2022/11/11 03:14:24;;;;;;;17.73;4.20;;;;;;;6.83;68.71;102213.78;4954932;28;20047;-68
2022/11/11 03:19:36;;;;;;;11.02;4.18;;;;;;;6.88;68.64;102214.34;4954913;28;20047;-69
2022/11/11 03:22:02;;;;;;;16.42;4.20;;;;;;;6.75;69.11;102216.94;4954609;28;20090;-69
2022/11/11 03:27:33;;;;;;;16.17;3.85;;;;;;;6.74;69.17;102209.03;4967545;28;20050;-69
2022/11/11 03:30:00;;;;;;;24.42;4.20;;;;;;;6.70;69.00;102211.03;4969199;28;20054;-69
2022/11/11 03:32:26;;;;;;;15.90;4.05;;;;;;;6.72;69.45;102211.81;4972294;28;20043;-69
2022/11/11 03:34:53;;;;;;;18.85;5.05;;;;;;;6.74;69.30;102198.34;4973945;28;20431;-69
2022/11/11 03:40:04;;;;;;;21.45;4.25;;;;;;;6.56;69.56;102190.59;4973507;28;20039;-69
2022/11/11 03:42:31;;;;;;;23.40;5.05;;;;;;;6.61;69.44;102180.50;4973740;28;20054;-69
2022/11/11 03:44:57;;;;;;;13.90;4.38;;;;;;;6.49;69.87;102189.25;4973621;28;20051;-69
2022/11/11 03:47:23;;;;;;;15.13;3.67;;;;;;;6.65;69.34;102171.34;4968664;28;20407;-69
2022/11/11 03:49:50;;;;;;;15.63;4.47;;;;;;;6.55;69.74;102170.22;4953658;28;20053;-70
2022/11/11 03:52:16;;;;;;;13.88;4.53;;;;;;;6.53;69.68;102164.16;4953504;28;20047;-70
2022/11/11 03:54:43;;;;;;;16.10;4.45;;;;;;;6.63;69.51;102167.06;4949590;28;20049;-68
2022/11/11 03:59:54;;;;;;;14.35;4.60;;;;;;;6.61;69.45;102163.66;4959605;28;20042;-70
2022/11/11 04:10:36;;;;;;;14.50;4.38;;;;;;;6.43;69.60;102171.03;4972422;28;20050;-70
2022/11/11 04:16:05;;;;;;;18.13;4.32;;;;;;;6.74;68.75;102183.25;4972989;28;20049;-69
2022/11/11 04:24:01;;;;;;;16.85;4.40;;;;;;;6.56;69.18;102163.91;4971386;28;20054;-69
2022/11/11 04:26:28;;;;;;;22.77;4.63;;;;;;;6.56;69.27;102166.59;4972642;28;20050;-69
2022/11/11 04:32:34;;;;;;;27.75;7.50;;;;;;;6.61;69.72;102174.31;4972300;28;20057;-69
2022/11/11 04:34:25;;;;;;;17.98;4.50;;;;;;;6.48;69.75;102177.75;4972199;28;20053;-69
2022/11/11 04:36:52;;;;;;;20.80;5.60;;;;;;;6.36;70.10;102170.56;4972500;28;20498;-69
2022/11/11 04:42:03;;;;;;;21.42;5.30;;;;;;;6.50;69.73;102167.00;4972312;28;20078;-69
2022/11/11 04:47:19;;;;;;;21.02;5.57;;;;;;;6.40;69.97;102177.41;4971871;28;20483;-68
2022/11/11 04:49:45;;;;;;;15.95;5.15;;;;;;;6.38;69.80;102181.09;4971898;28;20047;-68
2022/11/11 04:52:30;;;;;;;17.27;4.75;;;;;;;6.49;69.22;102181.28;4970716;28;20392;-68
2022/11/11 04:57:47;;;;;;;19.73;5.28;;;;;;;6.54;69.29;102184.50;4972544;28;20050;-68
2022/11/11 05:00:18;;;;;;;19.45;4.88;;;;;;;6.44;69.70;102196.72;4971697;28;20047;-70
2022/11/11 05:08:54;;;;;;;21.65;4.90;;;;;;;6.51;69.40;102191.84;4972375;28;20050;-69
2022/11/11 05:11:21;;;;;;;14.05;4.30;;;;;;;6.68;68.83;102181.81;4971371;28;20122;-69
2022/11/11 05:22:23;;;;;;;20.40;4.45;;;;;;;6.62;69.33;102170.69;4952325;28;20058;-69
2022/11/11 05:27:35;;;;;;;20.88;4.20;;;;;;;6.58;69.25;102183.34;4951277;28;20407;-70
2022/11/11 05:30:03;;;;;;;17.40;4.40;;;;;;;6.50;69.13;102190.16;4952212;28;20047;-69
2022/11/11 05:32:30;;;;;;;14.13;4.38;;;;;;;6.65;68.84;102197.16;4952417;28;20047;-69
2022/11/11 05:34:56;;;;;;;16.05;4.00;;;;;;;6.61;69.06;102207.16;4951417;28;20051;-71
2022/11/11 05:37:23;;;;;;;23.65;4.50;;;;;;;6.62;68.82;102214.19;4951868;28;20043;-69
2022/11/11 05:39:49;;;;;;;16.90;4.65;;;;;;;6.58;69.14;102222.50;4951234;28;20051;-69
2022/11/11 05:42:16;;;;;;;17.98;5.93;;;;;;;6.70;68.44;102230.59;4952565;28;20051;-69
2022/11/11 05:44:42;;;;;;;15.63;4.40;;;;;;;6.66;68.68;102231.72;4951262;28;20046;-68
2022/11/11 05:47:09;;;;;;;26.20;5.03;;;;;;;6.68;68.92;102240.47;4959887;28;20042;-69
2022/11/11 05:49:35;;;;;;;20.60;5.22;;;;;;;6.83;68.17;102245.78;4971177;28;20062;-69
2022/11/11 05:52:03;;;;;;;25.27;5.00;;;;;;;6.83;67.96;102240.44;4969728;28;20054;-69
2022/11/11 05:54:29;;;;;;;18.55;4.97;;;;;;;6.71;68.59;102234.09;4964994;28;20047;-69
2022/11/11 05:56:55;;;;;;;16.63;4.82;;;;;;;6.57;68.80;102234.97;4969722;28;20495;-68
2022/11/11 05:59:22;;;;;;;18.58;4.20;;;;;;;6.66;68.82;102225.53;4959834;28;20397;-69
2022/11/11 06:01:49;;;;;;;27.67;5.28;;;;;;;6.57;69.36;102226.13;4941655;28;20054;-69
2022/11/11 06:04:15;;;;;;;15.27;5.07;;;;;;;6.76;68.78;102225.81;4951378;28;20047;-67
2022/11/11 06:06:43;;;;;;;10.23;4.13;;;;;;;6.60;68.99;102221.47;4951215;28;20074;-69
2022/11/11 06:09:10;;;;;;;22.35;7.32;;;;;;;6.79;68.49;102233.59;4951624;28;20097;-69
2022/11/11 06:11:37;;;;;;;24.42;9.38;;;;;;;6.66;68.68;102239.72;4948634;28;20047;-69
2022/11/11 06:14:04;;;;;;;20.23;4.93;;;;;;;6.51;69.22;102240.69;4951243;28;20047;-69
2022/11/11 06:16:31;;;;;;;21.80;4.70;;;;;;;6.78;68.43;102234.56;4951404;28;20043;-67
2022/11/11 06:18:58;;;;;;;13.75;4.15;;;;;;;6.81;68.21;102240.56;4952017;28;20047;-68
2022/11/11 06:21:26;;;;;;;12.45;4.32;;;;;;;6.68;68.37;102243.16;4952164;28;20046;-70
2022/11/11 06:23:52;;;;;;;23.65;4.93;;;;;;;6.80;67.84;102244.16;4952473;28;20043;-70
2022/11/11 06:26:19;;;;;;;17.13;4.72;;;;;;;6.80;68.17;102254.84;4952161;28;20039;-68
2022/11/11 06:28:54;;;;;;;22.40;4.90;;;;;;;6.59;68.85;102257.06;4948804;28;20050;-70
2022/11/11 06:31:23;;;;;;;17.00;5.25;;;;;;;6.57;69.20;102258.97;4951113;28;20043;-70
2022/11/11 06:33:49;;;;;;;15.80;4.68;;;;;;;6.42;69.29;102250.09;4951403;28;20065;-69
2022/11/11 06:36:18;;;;;;;20.13;5.75;;;;;;;6.51;69.03;102251.34;4964964;28;20047;-70
2022/11/11 06:38:45;;;;;;;19.85;4.97;;;;;;;6.32;69.71;102259.66;4969777;28;20151;-68
2022/11/11 06:41:12;;;;;;;21.33;5.00;;;;;;;6.61;68.87;102249.81;4969021;28;20054;-68
2022/11/11 06:43:39;;;;;;;18.88;4.82;;;;;;;6.41;69.25;102264.41;4968514;28;20050;-70
2022/11/11 06:46:06;;;;;;;17.10;5.22;;;;;;;6.53;68.79;102257.47;4969308;28;20042;-70
2022/11/11 06:48:33;;;;;;;20.85;5.05;;;;;;;6.52;69.09;102249.53;4971639;28;20076;-68
2022/11/11 06:51:02;;;;;;;20.52;5.70;;;;;;;6.63;68.90;102247.94;4972825;28;20074;-70
2022/11/11 06:53:29;;;;;;;23.00;5.80;;;;;;;6.61;68.61;102248.97;4972781;28;20450;-70
2022/11/11 06:55:57;;;;;;;14.05;5.03;;;;;;;6.38;69.32;102247.75;4974079;28;20050;-70
2022/11/11 06:58:23;;;;;;;19.23;5.40;;;;;;;6.59;68.66;102242.88;4973335;28;20410;-69
2022/11/11 07:00:50;;;;;;;21.27;5.90;;;;;;;6.48;68.86;102246.22;4973204;28;20058;-69
2022/11/11 07:03:19;;;;;;;24.17;5.45;;;;;;;6.44;69.21;102242.03;4973687;28;20051;-69
2022/11/11 07:05:51;;;;;;;15.02;5.53;;;;;;;6.31;69.64;102241.94;4974299;28;20078;-70
2022/11/11 07:08:25;;;;;;;30.42;5.68;;;;;;;6.47;69.32;102237.38;4973761;28;20049;-70
2022/11/11 07:10:52;;;;;;;18.23;6.05;;;;;;;6.58;68.60;102250.03;4974361;28;20125;-70
2022/11/11 07:13:19;;;;;;;23.02;7.25;;;;;;;6.59;68.76;102249.06;4973516;28;20070;-70
2022/11/11 07:15:45;;;;;;;21.35;6.00;;;;;;;6.69;68.40;102252.84;4974281;28;20050;-68
2022/11/11 07:18:12;;;;;;;25.58;6.22;;;;;;;6.53;68.54;102262.81;4972989;28;20047;-68
2022/11/11 07:20:39;;;;;;;21.17;6.10;;;;;;;6.63;68.60;102261.28;4972641;28;20046;-68
2022/11/11 07:23:06;;;;;;;18.02;5.40;;;;;;;6.64;68.45;102251.44;4972776;28;20414;-70
2022/11/11 07:25:32;;;;;;;17.13;5.75;;;;;;;6.59;68.56;102250.88;4972828;28;20046;-68
2022/11/11 07:27:59;;;;;;;26.42;6.85;;;;;;;6.67;68.41;102248.59;4974459;28;20066;-69
2022/11/11 07:30:26;;;;;;;17.13;5.25;;;;;;;6.62;68.45;102246.19;4969487;28;20488;-69
2022/11/11 07:32:53;;;;;;;18.27;6.07;;;;;;;6.63;68.52;102253.28;4972702;28;20105;-68
2022/11/11 07:35:21;;;;;;;20.15;5.85;;;;;;;6.72;68.40;102251.81;4972933;28;20124;-69
2022/11/11 07:37:48;;;;;;;21.45;6.32;;;;;;;6.68;68.52;102256.50;4973682;28;20046;-68
2022/11/11 07:40:16;;;;;;;21.55;5.97;;;;;;;6.73;67.98;102268.66;4972680;28;20058;-69
2022/11/11 07:42:43;;;;;;;20.35;5.18;;;;;;;6.68;68.02;102266.31;4973205;28;20061;-68
2022/11/11 07:45:12;;;;;;;17.38;4.72;;;;;;;6.71;68.03;102274.13;4972875;28;20047;-68
2022/11/11 07:47:41;;;;;;;19.83;5.00;;;;;;;6.78;67.64;102286.09;4973359;28;20065;-68
2022/11/11 07:50:08;;;;;;;24.13;5.63;;;;;;;6.88;67.85;102284.56;4972893;28;20046;-69
2022/11/11 07:52:36;;;;;;;27.08;7.30;;;;;;;6.87;67.55;102298.00;4972750;28;20047;-67
2022/11/11 07:55:04;;;;;;;21.00;5.72;;;;;;;6.88;67.66;102300.56;4972712;28;20054;-70
2022/11/11 07:57:30;;;;;;;22.02;6.00;;;;;;;7.12;66.77;102295.47;4973050;28;20057;-69
2022/11/11 07:59:57;;;;;;;18.90;6.10;;;;;;;7.17;66.76;102297.84;4972290;28;20483;-68
2022/11/11 08:02:23;;;;;;;17.42;5.45;;;;;;;7.21;66.42;102301.16;4973176;28;20042;-68
2022/11/11 08:04:50;;;;;;;15.20;5.43;;;;;;;7.15;66.37;102297.94;4967775;28;20050;-68
2022/11/11 08:07:21;;;;;;;11.00;4.47;;;;;;;7.32;65.99;102294.16;4967631;28;20101;-70
2022/11/11 08:09:49;;;;;;;20.42;5.20;;;;;;;7.21;66.20;102298.50;4949819;28;61102;-70
2022/11/11 08:15:00;;;;;;;18.02;4.57;;;;;;;7.39;65.66;102305.28;4946474;28;20059;-70
2022/11/11 08:17:37;;;;;;;18.60;5.47;;;;;;;7.31;65.49;102315.63;4952934;28;20463;-69
2022/11/11 08:20:04;;;;;;;15.18;4.45;;;;;;;7.15;66.34;102310.41;4953729;28;20058;-70
2022/11/11 08:22:44;;;;;;;13.55;5.22;;;;;;;7.32;65.90;102304.84;4953294;28;20057;-70
2022/11/11 08:25:30;;;;;;;17.85;4.82;;;;;;;7.17;66.76;102309.38;4952414;28;20047;-70
2022/11/11 08:28:01;;;;;;;16.58;5.30;;;;;;;7.14;66.94;102314.91;4953795;28;20039;-70
2022/11/11 08:30:28;;;;;;;12.02;4.03;;;;;;;7.16;66.72;102321.00;4953931;28;20035;-70
2022/11/11 08:32:59;;;;;;;16.35;4.55;;;;;;;7.27;66.40;102324.81;4952335;28;20408;-69
2022/11/11 08:35:45;;;;;;;12.40;4.40;;;;;;;7.16;66.33;102331.69;4946037;28;20051;-70
2022/11/11 08:38:12;;;;;;;17.08;4.47;;;;;;;7.22;66.16;102319.75;4953306;28;20074;-70
2022/11/11 08:40:39;;;;;;;13.48;5.50;;;;;;;7.33;66.12;102327.94;4953303;28;20058;-69
2022/11/11 08:43:06;;;;;;;20.52;5.15;;;;;;;7.39;65.89;102332.00;4953140;28;20522;-70
2022/11/11 08:45:32;;;;;;;19.38;5.55;;;;;;;7.51;65.36;102333.03;4952170;28;20050;-70
2022/11/11 08:47:59;;;;;;;14.68;4.75;;;;;;;7.60;64.88;102330.59;4952242;28;20156;-70
2022/11/11 08:50:25;;;;;;;17.23;4.95;;;;;;;7.59;65.41;102338.72;4952316;28;20479;-70
2022/11/11 08:52:52;;;;;;;21.42;5.22;;;;;;;7.81;64.65;102343.47;4951817;28;20503;-70
2022/11/11 08:55:18;;;;;;;16.35;4.55;;;;;;;7.90;64.39;102346.41;4958106;28;20054;-70
2022/11/11 08:57:45;;;;;;;11.18;4.65;;;;;;;8.02;63.47;102351.91;4971759;28;20070;-68
2022/11/11 09:00:12;;;;;;;14.82;4.25;;;;;;;8.04;63.57;102361.53;4971756;28;20396;-69
2022/11/11 09:02:39;;;;;;;19.42;4.47;;;;;;;8.30;62.94;102358.91;4972141;28;20521;-68
2022/11/11 09:05:05;;;;;;;17.75;4.93;;;;;;;8.32;62.68;102365.00;4971550;28;20058;-68
2022/11/11 09:07:32;;;;;;;17.23;4.88;;;;;;;8.35;62.17;102364.78;4971843;28;20051;-68
2022/11/11 09:09:58;;;;;;;10.85;3.90;;;;;;;8.35;62.34;102370.13;4970454;28;20459;-71
2022/11/11 09:12:25;;;;;;;21.23;4.70;;;;;;;8.42;62.12;102366.06;4970967;28;20121;-70
2022/11/11 09:14:51;;;;;;;13.32;4.10;;;;;;;8.11;62.67;102375.34;4969891;28;20057;-69
2022/11/11 09:17:18;;;;;;;14.85;4.63;;;;;;;8.41;61.96;102380.41;4971885;28;20057;-68
2022/11/11 09:19:44;;;;;;;16.17;4.65;;;;;;;8.59;61.54;102375.63;4971974;28;20054;-68
2022/11/11 09:22:12;;;;;;;19.88;4.15;;;;;;;8.92;60.18;102380.44;4971824;28;20070;-68
2022/11/11 09:24:38;;;;;;;17.73;4.28;;;;;;;8.85;60.62;102381.81;4966954;28;20065;-68
2022/11/11 09:27:05;;;;;;;18.40;4.10;;;;;;;9.06;59.67;102382.97;4971350;28;20530;-70
2022/11/11 09:29:31;;;;;;;14.52;4.28;;;;;;;9.13;59.52;102393.22;4971752;28;20046;-70
2022/11/11 09:31:58;;;;;;;16.33;4.63;;;;;;;9.16;59.16;102387.66;4970557;28;20046;-69
2022/11/11 09:34:24;;;;;;;9.52;3.90;;;;;;;9.19;59.41;102385.59;4970912;28;20423;-69
2022/11/11 09:36:50;;;;;;;13.23;4.18;;;;;;;9.40;58.93;102391.25;4971147;28;20164;-69
2022/11/11 09:39:17;;;;;;;11.02;4.03;;;;;;;9.05;59.73;102386.59;4970148;28;20053;-68
2022/11/11 09:42:18;;;;;;;11.93;4.65;;;;;;;9.26;59.32;102386.91;4971333;28;20076;-68
2022/11/11 09:45:06;;;;;;;11.73;4.28;;;;;;;9.26;59.13;102391.41;4959752;28;20046;-68
2022/11/11 09:47:32;;;;;;;12.43;3.80;;;;;;;9.37;59.21;102402.22;4971167;28;20047;-70
2022/11/11 09:50:03;;;;;;;9.15;3.78;;;;;;;9.69;57.88;102405.22;4970988;28;20503;-70
2022/11/11 09:52:42;;;;;;;12.55;4.13;;;;;;;9.41;58.42;102405.53;4970850;28;20043;-68
2022/11/11 09:55:30;;;;;;;15.77;3.97;;;;;;;9.05;59.43;102401.81;4966850;28;20054;-69
2022/11/11 09:58:07;;;;;;;10.30;3.40;;;;;;;8.99;59.59;102397.75;4952253;28;20145;-68
2022/11/11 10:00:36;;;;;;;14.70;3.92;;;;;;;9.21;59.45;102402.44;4951753;28;20062;-68
2022/11/11 10:03:09;;;;;;;8.60;3.72;;;;;;;9.36;58.82;102405.84;4951499;28;20488;-68
2022/11/11 10:05:50;;;;;;;9.77;4.13;;;;;;;9.45;58.54;102412.38;4951736;28;20115;-70
2022/11/11 10:08:23;;;;;;;11.80;3.75;;;;;;;9.46;58.49;102414.94;4951881;28;20048;-68
2022/11/11 10:10:53;;;;;;;12.52;3.30;;;;;;;9.30;58.98;102428.59;4951432;28;20061;-70
2022/11/11 10:13:27;;;;;;;9.77;3.22;;;;;;;9.26;59.26;102415.50;4951636;28;20074;-70
2022/11/11 10:16:22;;;;;;;9.77;3.35;;;;;;;9.16;59.53;102415.31;4950987;28;20082;-68
2022/11/11 10:19:13;;;;;;;9.57;3.55;;;;;;;9.45;58.78;102417.72;4950566;28;20047;-68
2022/11/11 10:21:51;;;;;;;15.25;3.28;;;;;;;9.38;58.90;102406.59;4953570;28;20488;-68
2022/11/11 10:24:40;;;;;;;10.73;3.15;;;;;;;9.77;57.88;102418.03;4954186;28;20039;-68
2022/11/11 10:27:21;;;;;;;7.35;2.90;;;;;;;9.81;57.81;102414.16;4955527;28;20047;-70
2022/11/11 10:29:48;;;;;;;13.05;4.13;;;;;;;9.76;57.94;102411.84;4954784;28;20043;-68
2022/11/11 10:32:25;;;;;;;8.27;3.70;;;;;;;10.20;56.85;102415.69;4955191;28;20063;-70
2022/11/11 10:34:52;;;;;;;16.38;3.47;;;;;;;10.03;56.99;102410.75;4953825;28;20134;-69
2022/11/11 10:37:23;;;;;;;14.35;3.28;;;;;;;9.87;56.89;102412.84;4954347;28;20419;-70
2022/11/11 10:40:16;;;;;;;16.27;3.80;;;;;;;10.09;56.63;102410.25;4954926;28;20463;-70
2022/11/11 10:42:42;;;;;;;9.15;3.22;;;;;;;10.33;55.66;102407.53;4955464;28;20531;-70
2022/11/11 10:45:18;;;;;;;9.13;3.17;;;;;;;10.40;55.62;102422.19;4954499;28;20432;-69
2022/11/11 10:48:01;;;;;;;11.27;3.83;;;;;;;10.66;54.74;102414.88;4953358;28;20051;-69
2022/11/11 10:50:35;;;;;;;11.35;3.13;;;;;;;10.83;54.31;102412.69;4953998;28;20055;-69
2022/11/11 10:53:36;;;;;;;10.52;3.03;;;;;;;10.57;55.19;102403.97;4955461;28;20043;-70
2022/11/11 10:56:13;;;;;;;11.57;3.58;;;;;;;10.77;54.36;102408.66;4958537;28;20062;-69
2022/11/11 10:58:52;;;;;;;8.80;3.13;;;;;;;10.63;54.88;102406.19;4974450;28;20054;-69
2022/11/11 11:01:31;;;;;;;11.38;2.92;;;;;;;10.96;54.13;102402.66;4973941;28;20113;-69
2022/11/11 11:04:04;;;;;;;11.38;3.45;;;;;;;10.90;54.20;102406.72;4951166;28;20051;-68
2022/11/11 11:06:34;;;;;;;15.45;3.45;;;;;;;10.70;54.63;102404.75;4975019;28;20051;-70
2022/11/11 11:09:13;;;;;;;10.75;3.25;;;;;;;10.39;55.16;102398.19;4974753;28;20097;-69
2022/11/11 11:11:51;;;;;;;9.95;3.15;;;;;;;10.80;54.59;102386.09;4972655;28;20054;-69
2022/11/11 11:14:28;;;;;;;12.55;3.55;;;;;;;10.72;54.55;102392.03;4974657;28;20043;-69
2022/11/11 11:16:59;;;;;;;10.45;3.35;;;;;;;10.82;54.43;102389.50;4974223;28;20038;-69
2022/11/11 11:19:27;;;;;;;12.02;3.28;;;;;;;10.91;54.01;102389.63;4974666;28;20047;-68
2022/11/11 11:21:59;;;;;;;17.95;3.33;;;;;;;11.18;53.61;102383.88;4975139;28;20050;-70
2022/11/11 11:24:30;;;;;;;10.30;3.00;;;;;;;10.71;54.44;102380.44;4974559;28;20130;-70
2022/11/11 11:27:00;;;;;;;9.57;3.40;;;;;;;10.76;54.48;102381.94;4974544;28;20054;-70
2022/11/11 11:29:38;;;;;;;9.27;3.13;;;;;;;10.77;54.62;102375.59;4974387;28;20058;-68
2022/11/11 11:32:12;;;;;;;9.77;3.00;;;;;;;10.69;54.91;102371.69;4968966;28;20049;-69
2022/11/11 11:34:50;;;;;;;12.65;2.75;;;;;;;11.20;53.28;102371.16;4983476;28;20050;-68
2022/11/11 11:37:19;;;;;;;13.95;2.92;;;;;;;11.19;53.33;102373.97;4974211;28;20046;-68
2022/11/11 11:39:46;;;;;;;13.05;2.83;;;;;;;10.92;53.71;102358.25;4973683;28;20059;-68
2022/11/11 11:42:36;;;;;;;14.73;2.92;;;;;;;11.20;52.87;102367.63;4974235;28;20047;-68
2022/11/11 11:45:22;;;;;;;13.70;3.42;;;;;;;11.02;52.95;102361.06;4973994;28;20042;-68
2022/11/11 11:48:10;;;;;;;7.65;2.60;;;;;;;11.06;52.71;102359.84;4974049;28;20054;-70
2022/11/11 11:51:14;;;;;;;12.13;3.40;;;;;;;10.79;52.88;102357.50;4973454;28;20050;-69
2022/11/11 11:53:55;;;;;;;7.15;2.70;;;;;;;10.99;53.11;102356.78;4973824;28;20676;-68
2022/11/11 11:56:37;;;;;;;9.88;2.95;;;;;;;11.26;52.48;102352.84;4959987;28;20054;-69
2022/11/11 11:59:16;;;;;;;12.40;3.63;;;;;;;11.17;52.28;102352.63;4954434;28;20051;-69
2022/11/11 12:02:20;;;;;;;11.52;2.63;;;;;;;11.43;51.99;102355.00;4954286;28;20047;-68
2022/11/11 12:05:08;;;;;;;10.98;2.60;;;;;;;11.68;51.19;102359.25;4954324;28;20135;-69
2022/11/11 12:07:41;;;;;;;11.75;2.90;;;;;;;11.75;50.77;102364.97;4954507;28;20051;-68
2022/11/11 12:10:10;;;;;;;10.55;2.50;;;;;;;12.02;50.08;102362.66;4954454;28;20044;-70
2022/11/11 12:12:49;;;;;;;9.25;2.72;;;;;;;12.16;49.78;102365.03;4954308;28;20396;-69
2022/11/11 12:15:33;;;;;;;8.90;2.67;;;;;;;11.82;50.44;102361.63;4954229;28;20128;-69
2022/11/11 12:18:20;;;;;;;7.80;3.05;;;;;;;11.66;51.01;102353.16;4953871;28;20047;-68
2022/11/11 12:20:53;;;;;;;6.68;2.95;;;;;;;11.48;51.17;102341.19;4954173;28;20051;-69
2022/11/11 12:23:34;;;;;;;10.65;2.30;;;;;;;11.65;51.14;102340.63;4953756;28;20054;-69
2022/11/11 12:26:00;;;;;;;8.45;2.70;;;;;;;11.31;52.22;102343.44;4954042;28;20043;-70
2022/11/11 12:28:51;;;;;;;7.43;2.78;;;;;;;11.06;52.18;102341.03;4954186;28;20074;-68
2022/11/11 12:31:37;;;;;;;11.18;2.80;;;;;;;11.24;51.73;102347.63;4954108;28;20051;-68
2022/11/11 12:34:41;;;;;;;14.38;3.22;;;;;;;11.35;51.44;102346.75;4953768;28;20043;-70
2022/11/11 12:37:28;;;;;;;8.63;2.58;;;;;;;11.58;50.83;102355.56;4953605;28;20047;-69
2022/11/11 12:39:54;;;;;;;15.75;3.13;;;;;;;11.54;50.98;102352.28;4952921;28;20066;-68
2022/11/11 12:42:59;;;;;;;20.25;5.68;;;;;;;11.47;51.22;102353.78;4953482;28;20519;-69
2022/11/11 12:45:35;;;;;;;11.68;3.80;;;;;;;11.41;51.63;102347.09;4930839;28;20408;-68
2022/11/11 12:48:27;;;;;;;13.63;3.50;;;;;;;11.40;51.76;102345.38;4953335;28;20051;-70
2022/11/11 12:51:08;;;;;;;13.43;4.00;;;;;;;11.55;51.47;102347.75;4953780;28;20043;-69
2022/11/11 12:53:54;;;;;;;11.18;3.65;;;;;;;11.23;52.20;102349.44;4953276;28;20112;-67
2022/11/11 12:56:44;;;;;;;14.93;4.15;;;;;;;11.25;52.11;102352.00;4967024;28;20419;-68
2022/11/11 12:59:29;;;;;;;11.10;4.43;;;;;;;11.48;51.55;102346.56;4972522;28;20046;-69
2022/11/11 13:02:31;;;;;;;16.17;4.70;;;;;;;11.15;52.23;102345.66;4972486;28;20043;-68
2022/11/11 13:05:10;;;;;;;10.02;2.90;;;;;;;10.96;52.59;102341.78;4972274;28;20423;-68